Time;durP1;ratioP1;P1;durP2;ratioP2;P2;SDS_P1;SDS_P2;PMS_P1;PMS_P2;Temp;Humidity;BMP_temperature;BMP_pressure;BME280_temperature;BME280_humidity;BME280_pressure;Samples;Min_cycle;Max_cycle;Signal;HPM_P1;HPM_P2
2021/03/30 00:02:01;;;;;;;8.10;3.83;;;9.70;97.40;;;8.82;100.00;101763.78;4986041;27;100441;-61
2021/03/30 00:05:12;;;;;;;9.63;3.70;;;9.60;97.50;;;8.71;100.00;101769.03;4986289;28;100042;-60
2021/03/30 00:08:23;;;;;;;5.17;3.47;;;9.60;98.00;;;8.72;100.00;101760.06;4966446;28;99965;-61
2021/03/30 00:11:36;;;;;;;8.10;4.07;;;9.50;98.60;;;8.16;100.00;101767.59;4966009;28;100856;-61
2021/03/30 00:14:47;;;;;;;6.50;3.53;;;9.40;99.10;;;7.93;100.00;101767.34;4965188;28;100858;-60
2021/03/30 00:17:58;;;;;;;8.43;3.73;;;9.30;99.60;;;8.08;100.00;101769.91;4966119;28;100184;-61
2021/03/30 00:21:09;;;;;;;7.50;3.57;;;9.30;99.90;;;7.96;100.00;101770.75;4965849;28;100030;-61
2021/03/30 00:24:20;;;;;;;5.90;3.80;;;9.20;99.90;;;7.77;100.00;101765.84;4965866;28;101510;-61
2021/03/30 00:27:33;;;;;;;9.13;4.23;;;9.10;99.90;;;7.58;100.00;101766.22;4965140;28;100173;-60
2021/03/30 00:30:45;;;;;;;8.37;3.63;;;9.00;99.90;;;7.55;100.00;101774.41;4965521;28;100622;-61
2021/03/30 00:33:56;;;;;;;5.73;4.10;;;8.90;99.90;;;7.31;100.00;101770.69;4967037;28;100257;-60
2021/03/30 00:37:07;;;;;;;5.57;4.23;;;8.90;99.90;;;7.20;100.00;101782.91;4985568;28;100724;-61
2021/03/30 00:40:19;;;;;;;9.87;4.53;;;8.80;99.90;;;7.18;100.00;101770.66;4985640;28;100577;-61
2021/03/30 00:43:32;;;;;;;5.70;3.30;;;8.70;99.90;;;7.21;100.00;101766.00;4966058;28;100118;-61
2021/03/30 00:46:45;;;;;;;8.90;4.50;;;8.60;99.90;;;7.28;100.00;101771.78;4966506;28;100330;-61
2021/03/30 00:49:56;;;;;;;7.27;4.17;;;8.50;99.90;;;6.87;100.00;101777.13;4965151;28;101544;-59
2021/03/30 00:53:38;;;;;;;8.70;4.57;;;8.40;99.90;;;6.51;100.00;101774.13;4979566;28;102417;-61
2021/03/30 00:57:22;;;;;;;8.63;5.10;;;8.40;99.90;;;6.33;100.00;101778.78;4861650;28;100398;-61
2021/03/30 01:08:45;;;;;;;5.27;3.57;;;8.00;99.90;;;6.52;100.00;101786.47;4959558;28;100323;-60
2021/03/30 01:12:17;;;;;;;8.13;4.00;;;7.90;99.90;;;6.35;100.00;101793.69;4965030;28;100327;-60
2021/03/30 01:15:47;;;;;;;7.73;4.70;;;7.80;99.90;;;6.12;100.00;101788.91;4966301;28;100248;-60
2021/03/30 01:19:57;;;;;;;8.80;4.60;;;7.70;99.90;;;6.25;100.00;101797.00;4974735;28;101172;-60
2021/03/30 01:23:41;;;;;;;11.47;5.53;;;7.60;99.90;;;6.24;100.00;101797.94;4984402;27;101612;-61
2021/03/30 01:27:10;;;;;;;7.43;4.77;;;7.60;99.90;;;5.93;100.00;101796.31;4900660;28;100470;-58
2021/03/30 01:30:25;;;;;;;7.53;4.57;;;7.50;99.90;;;5.78;100.00;101798.03;4914890;27;100272;-60
2021/03/30 01:33:39;;;;;;;8.67;4.87;;;7.40;99.90;;;5.68;100.00;101791.56;4984679;27;101680;-60
2021/03/30 01:36:55;;;;;;;5.07;4.00;;;7.40;99.90;;;5.50;100.00;101795.28;4982329;28;100402;-61
2021/03/30 01:40:08;;;;;;;8.60;4.10;;;7.30;99.90;;;5.43;100.00;101794.78;4971231;27;100245;-61
2021/03/30 01:43:21;;;;;;;6.27;3.83;;;7.30;99.90;;;5.48;100.00;101787.38;4964742;28;100090;-60
2021/03/30 01:46:34;;;;;;;7.93;4.40;;;7.20;99.90;;;5.32;100.00;101786.56;4964315;28;101311;-59
2021/03/30 01:49:48;;;;;;;7.13;4.60;;;7.10;99.90;;;5.17;100.00;101785.66;4964602;28;100305;-60
2021/03/30 01:53:00;;;;;;;10.23;4.67;;;7.10;99.90;;;5.19;100.00;101782.94;4964576;28;100426;-60
2021/03/30 01:56:13;;;;;;;6.67;3.80;;;7.00;99.90;;;5.61;100.00;101783.06;4965457;28;100042;-60
2021/03/30 01:59:25;;;;;;;5.93;4.07;;;7.00;99.90;;;5.34;100.00;101782.88;4964264;28;101267;-60
2021/03/30 02:02:38;;;;;;;5.37;4.27;;;6.90;99.90;;;5.24;100.00;101779.03;4965504;28;100442;-60
2021/03/30 02:05:50;;;;;;;5.57;4.43;;;6.90;99.90;;;5.21;100.00;101779.22;4964069;28;100327;-59
2021/03/30 02:09:03;;;;;;;5.80;3.27;;;6.90;99.90;;;5.56;100.00;101777.19;4964808;28;99995;-59
2021/03/30 02:12:16;;;;;;;5.67;3.90;;;6.90;99.90;;;5.42;100.00;101782.47;4964660;28;100185;-61
2021/03/30 02:15:28;;;;;;;4.57;3.97;;;6.80;99.90;;;5.26;100.00;101782.47;4964334;28;101069;-60
2021/03/30 02:18:54;;;;;;;7.27;4.13;;;6.80;99.90;;;5.03;100.00;101782.94;4964779;28;100209;-60
2021/03/30 02:22:12;;;;;;;8.60;4.47;;;6.80;99.90;;;5.04;100.00;101784.63;4965390;28;100202;-60
2021/03/30 02:25:25;;;;;;;8.77;4.60;;;6.80;99.90;;;4.83;100.00;101788.47;4964157;28;101022;-61
2021/03/30 02:29:04;;;;;;;7.03;4.40;;;6.70;99.90;;;4.98;100.00;101792.94;4964473;28;101133;-61
2021/03/30 02:32:19;;;;;;;7.43;3.80;;;6.70;99.90;;;4.97;100.00;101786.75;4901368;28;100223;-59
2021/03/30 02:35:33;;;;;;;8.73;4.60;;;6.60;99.90;;;5.11;100.00;101783.34;4903542;28;100182;-60
2021/03/30 02:38:45;;;;;;;9.30;5.37;;;6.60;99.90;;;4.76;100.00;101787.97;4979664;27;101605;-60
2021/03/30 02:41:58;;;;;;;8.83;5.90;;;6.60;99.90;;;4.74;100.00;101788.97;4987561;27;100388;-61
2021/03/30 02:45:10;;;;;;;6.27;4.60;;;6.60;99.90;;;4.91;100.00;101797.72;4988337;28;100249;-60
2021/03/30 02:48:45;;;;;;;8.30;5.20;;;6.50;99.90;;;4.82;100.00;101786.78;4988181;28;100153;-61
2021/03/30 02:51:59;;;;;;;6.03;4.93;;;6.50;99.90;;;4.87;100.00;101793.53;4948857;28;101636;-59
2021/03/30 02:55:11;;;;;;;9.07;5.03;;;6.50;99.90;;;4.95;100.00;101796.59;4967452;28;101343;-61
2021/03/30 02:58:23;;;;;;;5.47;3.90;;;6.50;99.90;;;5.11;100.00;101798.41;4967172;28;100163;-60
2021/03/30 03:01:35;;;;;;;4.83;3.77;;;6.40;99.90;;;5.10;100.00;101800.19;4967020;28;100463;-61
2021/03/30 03:04:48;;;;;;;7.13;4.43;;;6.40;99.90;;;5.09;100.00;101795.81;4946761;28;101681;-61
2021/03/30 03:08:02;;;;;;;8.50;4.97;;;6.40;99.90;;;4.75;100.00;101796.84;4948063;28;102803;-60
2021/03/30 03:11:13;;;;;;;7.47;4.80;;;6.40;99.90;;;4.39;100.00;101801.50;4967506;28;100524;-60
2021/03/30 03:14:26;;;;;;;9.33;4.97;;;6.30;99.90;;;4.23;100.00;101801.44;4967975;28;100076;-59
2021/03/30 03:17:43;;;;;;;5.90;4.57;;;6.30;99.90;;;4.13;100.00;101803.72;4966733;28;101458;-60
2021/03/30 03:20:55;;;;;;;9.60;4.70;;;6.20;99.90;;;4.11;100.00;101794.13;4978331;28;100304;-61
2021/03/30 03:24:08;;;;;;;10.87;5.83;;;6.10;99.90;;;4.11;100.00;101799.44;4968038;28;100301;-60
2021/03/30 03:27:21;;;;;;;10.87;5.53;;;6.10;99.90;;;4.13;100.00;101803.72;4987817;28;100617;-60
2021/03/30 03:30:33;;;;;;;10.90;5.53;;;6.00;99.90;;;4.22;100.00;101811.19;4986644;28;100621;-60
2021/03/30 03:33:56;;;;;;;8.87;6.07;;;6.00;99.90;;;4.10;100.00;101801.22;4986254;28;101223;-59
2021/03/30 03:37:18;;;;;;;13.10;6.00;;;5.90;99.90;;;4.11;100.00;101808.25;4983816;28;101529;-59
2021/03/30 03:40:31;;;;;;;9.30;6.03;;;5.90;99.90;;;4.01;100.00;101808.81;4966217;28;100156;-60
2021/03/30 03:47:53;;;;;;;10.57;5.83;;;5.90;99.90;;;3.88;100.00;101806.78;4950214;28;101089;-60
2021/03/30 03:51:40;;;;;;;9.03;5.70;;;5.80;99.90;;;4.26;100.00;101811.88;4965407;28;100283;-61
2021/03/30 03:58:49;;;;;;;11.23;6.33;;;5.70;99.90;;;3.88;100.00;101811.22;4948146;28;101242;-59
2021/03/30 04:02:05;;;;;;;8.17;6.07;;;5.70;99.90;;;3.72;100.00;101812.94;4966703;28;100259;-60
2021/03/30 04:05:22;;;;;;;11.30;5.93;;;5.70;99.90;;;3.86;100.00;101818.38;4965924;28;100156;-61
2021/03/30 04:08:35;;;;;;;7.93;6.07;;;5.60;99.90;;;4.15;100.00;101817.75;4966412;28;100016;-61
2021/03/30 04:11:48;;;;;;;8.80;6.53;;;5.60;99.90;;;4.05;100.00;101818.31;4965529;28;100943;-60
2021/03/30 04:15:06;;;;;;;9.17;6.57;;;5.60;99.90;;;4.00;100.00;101815.91;4965931;28;100683;-60
2021/03/30 04:18:18;;;;;;;12.07;6.23;;;5.60;99.90;;;3.97;100.00;101824.00;4983109;28;100313;-60
2021/03/30 04:21:34;;;;;;;7.97;5.90;;;5.50;99.90;;;3.79;100.00;101823.16;4986026;28;100314;-61
2021/03/30 04:24:45;;;;;;;8.43;5.70;;;5.50;99.90;;;3.67;100.00;101828.19;4985312;28;100916;-59
2021/03/30 04:27:56;;;;;;;12.67;8.17;;;5.50;99.90;;;3.68;100.00;101827.28;4985173;28;100925;-60
2021/03/30 04:31:09;;;;;;;15.90;9.30;;;5.50;99.90;;;3.72;100.00;101829.66;4985347;28;100354;-61
2021/03/30 04:34:20;;;;;;;10.10;7.13;;;5.50;99.90;;;4.06;100.00;101830.63;4985903;28;100074;-60
2021/03/30 04:37:31;;;;;;;14.33;8.17;;;5.40;99.90;;;4.00;100.00;101834.44;4985370;28;101636;-61
2021/03/30 04:40:49;;;;;;;14.07;6.73;;;5.40;99.90;;;4.07;100.00;101837.63;4984696;28;100224;-60
2021/03/30 04:44:01;;;;;;;9.73;6.33;;;5.40;99.90;;;4.29;100.00;101836.44;4968985;28;100244;-60
2021/03/30 04:47:14;;;;;;;9.37;6.67;;;5.40;99.90;;;4.13;100.00;101842.59;4965699;28;100178;-61
2021/03/30 04:50:26;;;;;;;15.67;8.07;;;5.40;99.90;;;3.93;100.00;101846.28;4965417;28;100903;-60
2021/03/30 04:53:37;;;;;;;14.23;8.30;;;5.50;99.90;;;3.75;100.00;101847.19;4965272;28;100400;-60
2021/03/30 04:56:48;;;;;;;14.30;9.17;;;5.50;99.90;;;3.88;100.00;101850.94;4965873;28;100027;-60
2021/03/30 05:00:00;;;;;;;15.97;9.70;;;5.50;99.90;;;3.88;100.00;101848.28;4965441;28;100074;-61
2021/03/30 05:03:12;;;;;;;15.27;9.50;;;5.50;99.90;;;3.78;100.00;101849.69;4964830;28;101477;-60
2021/03/30 05:06:24;;;;;;;14.87;9.03;;;5.50;99.90;;;3.76;100.00;101855.06;4964561;28;101562;-60
2021/03/30 05:09:35;;;;;;;17.77;8.67;;;5.50;99.90;;;3.71;100.00;101853.59;4973561;28;100300;-61
2021/03/30 05:12:58;;;;;;;15.87;8.60;;;5.50;99.90;;;3.71;100.00;101861.53;4985520;27;100344;-59
2021/03/30 05:16:09;;;;;;;14.00;7.70;;;5.60;99.90;;;3.84;100.00;101860.81;4984031;27;100830;-60
2021/03/30 05:19:27;;;;;;;16.83;7.97;;;5.60;99.90;;;3.86;100.00;101861.63;4985009;27;100555;-60
2021/03/30 05:22:39;;;;;;;13.67;7.40;;;5.60;99.90;;;3.94;100.00;101870.06;4985188;27;100170;-60
2021/03/30 05:25:58;;;;;;;13.53;7.70;;;5.60;99.90;;;3.93;100.00;101868.34;4985272;27;100148;-61
2021/03/30 05:29:10;;;;;;;17.97;8.97;;;5.70;99.90;;;3.90;100.00;101871.13;4984787;28;101514;-60
2021/03/30 05:32:27;;;;;;;12.97;7.73;;;5.70;99.90;;;3.84;100.00;101873.22;4983358;27;100445;-60
2021/03/30 05:35:40;;;;;;;15.60;8.77;;;5.70;99.90;;;3.90;100.00;101867.63;4977723;28;100100;-60
2021/03/30 05:39:00;;;;;;;18.93;8.97;;;5.70;99.90;;;3.89;100.00;101866.75;4981316;28;100359;-60
2021/03/30 05:42:23;;;;;;;13.77;9.10;;;5.70;99.90;;;4.22;100.00;101879.22;4979977;28;101490;-60
2021/03/30 05:45:37;;;;;;;16.80;8.40;;;5.70;99.90;;;4.23;100.00;101876.50;4981953;28;100665;-61
2021/03/30 05:48:54;;;;;;;12.43;8.10;;;5.80;99.90;;;4.40;100.00;101880.06;4980358;28;100402;-61
2021/03/30 05:52:12;;;;;;;14.33;8.70;;;5.90;99.90;;;4.51;100.00;101883.88;4980861;28;100113;-60
2021/03/30 05:55:26;;;;;;;13.67;8.17;;;6.00;99.90;;;4.73;100.00;101866.81;4976150;28;101118;-60
2021/03/30 05:58:39;;;;;;;14.70;8.87;;;6.10;99.90;;;5.21;100.00;101876.53;4980390;28;101365;-61
2021/03/30 06:01:59;;;;;;;15.90;8.90;;;6.20;99.90;;;5.82;100.00;101881.03;4973759;28;100513;-60
2021/03/30 06:05:17;;;;;;;16.53;9.23;;;6.40;99.90;;;6.25;100.00;101882.06;4972962;28;100416;-61
2021/03/30 06:08:30;;;;;;;12.90;8.10;;;6.70;99.90;;;6.51;100.00;101878.69;4972151;28;100748;-61
2021/03/30 06:11:43;;;;;;;13.20;9.07;;;7.10;99.90;;;6.86;100.00;101881.84;4981598;28;100570;-62
2021/03/30 06:15:15;;;;;;;14.93;8.17;;;7.40;99.90;;;6.97;100.00;101884.69;4981236;28;100417;-60
2021/03/30 06:18:42;;;;;;;11.33;7.23;;;7.80;99.90;;;7.59;100.00;101879.78;4971831;28;100517;-61
2021/03/30 06:22:09;;;;;;;11.90;7.93;;;8.10;99.90;;;8.05;100.00;101879.41;4982111;28;100920;-60
2021/03/30 06:25:22;;;;;;;14.67;8.60;;;8.50;99.90;;;8.07;100.00;101890.81;4977144;28;100538;-61
2021/03/30 06:28:40;;;;;;;29.90;18.33;;;9.00;99.90;;;8.49;100.00;101895.09;4984686;28;100445;-60
2021/03/30 06:31:52;;;;;;;15.90;9.67;;;9.40;99.90;;;9.28;100.00;101898.31;4973967;28;100313;-61
2021/03/30 06:35:21;;;;;;;12.30;8.30;;;9.80;99.90;;;9.61;100.00;101900.38;4972495;28;101641;-60
2021/03/30 06:38:32;;;;;;;15.13;6.63;;;10.40;99.90;;;10.11;100.00;101898.41;4980930;28;101517;-62
2021/03/30 06:42:05;;;;;;;13.43;7.17;;;10.90;99.90;;;10.24;100.00;101903.72;4983439;28;100271;-61
2021/03/30 06:45:24;;;;;;;9.60;6.70;;;11.40;99.90;;;10.44;100.00;101898.53;4982847;28;100164;-61
2021/03/30 06:48:36;;;;;;;11.27;6.47;;;12.00;99.90;;;11.11;100.00;101895.09;4971526;28;101259;-61
2021/03/30 06:51:59;;;;;;;14.27;6.27;;;12.40;99.90;;;11.68;100.00;101892.19;4980282;28;100245;-60
2021/03/30 06:55:17;;;;;;;10.13;6.77;;;12.90;99.90;;;12.10;100.00;101893.16;4971546;28;100365;-60
2021/03/30 06:58:41;;;;;;;12.73;6.03;;;13.40;99.60;;;12.37;100.00;101895.31;4982435;28;100436;-62
2021/03/30 07:02:00;;;;;;;10.77;5.30;;;13.90;96.30;;;12.49;100.00;101901.47;4963637;28;101322;-61
2021/03/30 07:05:17;;;;;;;10.73;4.90;;;14.30;93.00;;;12.53;100.00;101898.41;4981048;28;101071;-61
2021/03/30 07:08:35;;;;;;;11.33;5.83;;;14.70;88.30;;;13.24;100.00;101903.88;4983613;28;100149;-61
2021/03/30 07:11:46;;;;;;;10.77;5.03;;;15.00;86.00;;;13.39;100.00;101898.97;4978014;28;100682;-62
2021/03/30 07:15:10;;;;;;;7.87;5.13;;;15.40;83.10;;;13.23;100.00;101894.09;4980712;28;101132;-61
2021/03/30 07:18:43;;;;;;;11.30;5.32;;;15.80;76.90;;;13.29;100.00;101897.09;4983998;28;100490;-62
2021/03/30 07:22:03;;;;;;;6.93;5.07;;;16.10;71.90;;;13.36;100.00;101896.53;4962890;28;100399;-62
2021/03/30 07:25:21;;;;;;;10.38;4.78;;;16.20;68.00;;;13.31;100.00;101896.97;4975030;28;100745;-61
2021/03/30 07:28:37;;;;;;;6.72;4.68;;;16.40;65.30;;;13.11;100.00;101897.84;4982714;28;101048;-62
2021/03/30 07:31:56;;;;;;;8.55;5.35;;;16.50;60.70;;;13.47;100.00;101910.75;4975570;28;101294;-60
2021/03/30 07:35:15;;;;;;;9.13;5.22;;;16.50;59.80;;;13.68;100.00;101905.28;4971914;28;100323;-61
2021/03/30 07:38:32;;;;;;;8.27;5.03;;;16.70;59.60;;;13.93;100.00;101904.75;4983450;28;100330;-60
2021/03/30 07:45:47;;;;;;;10.50;5.32;;;17.20;58.60;;;14.56;100.00;101909.69;4958195;28;100628;-61
2021/03/30 07:49:01;;;;;;;9.80;5.10;;;17.40;57.00;;;14.88;100.00;101906.63;4981574;28;100075;-61
2021/03/30 07:52:19;;;;;;;9.70;5.38;;;17.70;56.30;;;14.42;100.00;101907.44;4973932;28;100301;-61
2021/03/30 07:55:41;;;;;;;9.43;5.53;;;17.90;54.40;;;14.65;100.00;101898.88;4982432;28;101127;-62
2021/03/30 08:02:39;;;;;;;7.40;5.78;;;18.20;52.70;;;14.93;100.00;101897.13;4979637;28;100138;-61
2021/03/30 08:05:53;;;;;;;7.72;5.50;;;18.30;51.90;;;15.20;100.00;101900.84;4971596;28;99855;-61
2021/03/30 08:09:23;;;;;;;10.13;5.43;;;18.50;51.80;;;15.07;100.00;101901.19;4980432;28;101336;-62
2021/03/30 08:12:46;;;;;;;7.70;5.82;;;18.60;50.20;;;15.50;100.00;101907.75;4981747;28;100732;-62
2021/03/30 08:16:08;;;;;;;8.80;5.88;;;18.60;50.30;;;15.44;100.00;101902.00;4969868;28;100094;-62
2021/03/30 08:19:21;;;;;;;8.32;5.03;;;18.80;50.10;;;16.01;100.00;101905.31;4982981;28;100151;-61
2021/03/30 08:22:35;;;;;;;8.00;5.10;;;19.00;50.50;;;16.39;100.00;101897.88;4982256;28;101126;-61
2021/03/30 08:25:58;;;;;;;11.02;5.90;;;19.50;49.90;;;16.14;100.00;101900.38;4975536;28;100229;-62
2021/03/30 08:29:42;;;;;;;9.43;5.60;;;19.70;48.60;;;16.81;100.00;101906.16;4976154;28;100087;-61
2021/03/30 08:33:01;;;;;;;6.90;5.72;;;20.00;48.70;;;17.01;100.00;101912.19;4979325;28;100083;-60
2021/03/30 08:36:41;;;;;;;8.88;6.30;;;20.40;48.10;;;16.61;100.00;101901.91;4976753;27;101689;-61
2021/03/30 08:40:14;;;;;;;7.47;5.80;;;20.60;46.00;;;16.69;100.00;101902.84;4980455;28;100955;-62
2021/03/30 08:47:54;;;;;;;8.85;6.38;;;21.20;45.60;;;17.81;100.00;101910.81;4891663;28;100525;-61
2021/03/30 08:55:02;;;;;;;10.32;7.55;;;22.00;42.80;;;17.43;100.00;101912.22;4967664;28;100463;-61
2021/03/30 08:58:16;;;;;;;8.45;6.63;;;22.10;42.50;;;18.24;100.00;101909.69;4952337;28;99992;-60
2021/03/30 09:01:34;;;;;;;9.77;6.60;;;22.20;42.80;;;18.46;100.00;101908.16;4984838;28;99550;-61
2021/03/30 09:09:01;;;;;;;8.00;6.95;;;22.90;42.00;;;18.81;97.86;101902.38;4941130;28;100584;-62
2021/03/30 09:12:12;;;;;;;8.63;7.30;;;23.40;40.80;;;18.65;99.30;101903.28;4982223;28;100184;-61
2021/03/30 09:15:28;;;;;;;8.98;6.78;;;23.60;40.10;;;18.79;95.10;101906.31;4978595;28;100113;-61
2021/03/30 09:18:56;;;;;;;9.27;7.38;;;23.80;39.80;;;18.77;85.71;101908.34;4981713;27;100720;-62
2021/03/30 09:22:12;;;;;;;11.18;7.30;;;23.90;38.60;;;18.70;89.08;101910.88;4962335;28;101959;-61
2021/03/30 09:25:34;;;;;;;11.00;8.18;;;24.00;38.00;;;18.07;86.66;101908.81;4967801;28;99852;-62
2021/03/30 09:28:46;;;;;;;9.70;7.70;;;24.10;36.60;;;18.43;84.70;101908.47;4977383;28;99995;-62
2021/03/30 09:31:59;;;;;;;9.43;7.40;;;24.10;36.40;;;18.97;78.32;101901.50;4981645;28;99961;-61
2021/03/30 09:35:11;;;;;;;11.05;7.40;;;24.10;36.50;;;20.27;73.34;101900.81;4975061;28;100282;-61
2021/03/30 09:38:23;;;;;;;11.23;7.15;;;24.30;36.60;;;20.20;74.99;101902.56;4974672;28;99806;-62
2021/03/30 09:41:52;;;;;;;10.60;8.10;;;24.70;36.40;;;18.91;69.55;101892.19;4975793;28;100196;-60
2021/03/30 09:45:06;;;;;;;8.77;7.15;;;25.10;35.10;;;19.16;71.72;101892.97;4975955;28;100270;-62
2021/03/30 09:48:20;;;;;;;9.38;7.05;;;25.50;34.30;;;20.00;71.77;101886.75;4978870;27;99958;-63
2021/03/30 09:51:33;;;;;;;10.55;7.25;;;25.80;33.70;;;20.01;70.81;101883.00;4976097;28;100092;-60
2021/03/30 09:54:57;;;;;;;8.95;8.05;;;26.10;33.10;;;20.00;72.66;101875.88;4981619;28;100056;-61
2021/03/30 09:58:16;;;;;;;9.15;8.25;;;26.30;33.00;;;19.42;66.27;101883.66;4980960;28;99899;-60
2021/03/30 10:01:27;;;;;;;11.88;8.93;;;26.50;32.40;;;19.41;69.30;101874.69;4979074;28;100222;-62
2021/03/30 10:04:42;;;;;;;10.57;9.02;;;26.40;30.60;;;18.94;71.12;101880.13;4975132;28;99773;-61
2021/03/30 10:08:01;;;;;;;10.27;9.23;;;25.90;31.30;;;19.25;64.32;101875.63;4982782;28;99990;-61
2021/03/30 10:11:33;;;;;;;10.82;9.52;;;25.70;31.60;;;19.79;62.76;101872.13;4976267;28;101273;-63
2021/03/30 10:15:04;;;;;;;10.38;9.20;;;25.60;31.40;;;19.66;66.29;101859.13;4975672;28;99795;-62
2021/03/30 10:18:16;;;;;;;12.07;9.80;;;25.60;31.70;;;19.84;71.73;101867.84;4963031;28;100454;-60
2021/03/30 10:21:29;;;;;;;11.50;9.63;;;25.60;31.80;;;19.55;71.24;101868.53;4980809;28;99842;-62
2021/03/30 10:24:42;;;;;;;13.32;11.80;;;25.60;32.30;;;19.58;59.19;101861.91;4976733;28;100619;-61
2021/03/30 10:28:00;;;;;;;14.65;10.75;;;25.50;30.80;;;19.69;61.86;101856.91;4973692;28;100342;-61
2021/03/30 10:34:47;;;;;;;12.02;10.15;;;25.50;32.00;;;19.91;65.06;101854.38;4980861;28;100412;-61
2021/03/30 10:42:08;;;;;;;13.80;9.98;;;25.90;30.40;;;20.13;64.51;101848.09;4968737;28;99873;-61
2021/03/30 10:48:57;;;;;;;12.13;10.27;;;25.80;30.50;;;20.01;56.38;101841.41;4947572;28;100319;-61
2021/03/30 10:52:12;;;;;;;11.68;9.57;;;25.90;30.20;;;20.00;52.70;101835.13;4977288;28;99892;-61
2021/03/30 10:55:25;;;;;;;11.68;10.45;;;26.00;30.00;;;19.94;52.33;101826.84;4975243;28;99931;-60
2021/03/30 10:58:37;;;;;;;12.45;9.80;;;26.10;29.50;;;20.19;54.55;101830.19;4974814;27;99867;-60
2021/03/30 11:01:49;;;;;;;10.43;9.20;;;26.00;29.60;;;20.33;53.67;101838.41;4977234;28;99942;-61
2021/03/30 11:05:00;;;;;;;10.20;9.02;;;25.90;29.90;;;20.52;46.60;101818.03;4981760;28;99301;-61
2021/03/30 11:08:12;;;;;;;11.93;9.18;;;26.10;30.00;;;20.55;48.78;101822.22;4980167;28;99936;-63
2021/03/30 11:11:36;;;;;;;12.52;9.20;;;26.40;29.30;;;20.34;53.84;101820.22;4986144;28;100033;-63
2021/03/30 11:14:48;;;;;;;12.75;10.68;;;26.50;28.90;;;20.22;52.88;101819.81;4984567;28;100054;-62
2021/03/30 11:17:59;;;;;;;11.55;9.60;;;26.40;29.00;;;20.16;55.57;101812.38;4983980;28;101395;-61
2021/03/30 11:21:11;;;;;;;11.55;9.57;;;26.30;29.40;;;20.08;52.37;101809.75;4983791;28;100329;-61
2021/03/30 11:24:23;;;;;;;9.90;8.90;;;26.30;29.20;;;20.61;52.42;101805.19;4967429;28;99851;-60
2021/03/30 11:27:35;;;;;;;12.02;9.27;;;26.20;29.30;;;20.76;49.40;101801.44;4983721;28;99839;-62
2021/03/30 11:30:51;;;;;;;10.95;9.10;;;26.40;29.20;;;20.98;50.66;101798.78;4981464;28;99844;-60
2021/03/30 11:34:08;;;;;;;14.90;10.27;;;26.50;29.20;;;20.20;53.22;101791.13;4981777;28;100041;-60
2021/03/30 11:37:33;;;;;;;10.48;8.95;;;26.70;29.20;;;20.65;49.16;101788.28;4982901;28;100206;-60
2021/03/30 11:40:45;;;;;;;12.98;9.60;;;27.00;28.70;;;20.74;53.21;101779.03;4975772;28;99633;-60
2021/03/30 11:43:56;;;;;;;9.68;8.77;;;27.10;29.10;;;20.54;46.38;101779.75;4983687;28;100107;-61
2021/03/30 11:47:08;;;;;;;11.75;9.85;;;27.20;27.50;;;20.74;48.83;101780.91;4980091;28;100238;-60
2021/03/30 11:50:20;;;;;;;13.52;10.55;;;27.10;28.00;;;21.12;52.22;101770.72;4982821;28;100087;-60
2021/03/30 11:53:50;;;;;;;10.82;9.70;;;27.20;28.80;;;21.41;55.94;101769.78;4981732;28;99567;-61
2021/03/30 11:57:01;;;;;;;13.48;10.55;;;27.40;28.90;;;20.68;52.05;101760.72;4978031;28;99852;-61
2021/03/30 12:00:12;;;;;;;12.35;11.05;;;27.60;28.80;;;21.12;48.84;101765.25;4984288;28;99764;-61
2021/03/30 12:03:43;;;;;;;16.77;11.52;;;27.90;28.20;;;20.68;46.75;101760.72;4984307;28;99914;-61
2021/03/30 12:06:56;;;;;;;11.35;10.15;;;27.70;27.20;;;20.65;44.07;101752.94;4965174;28;99785;-60
2021/03/30 12:13:42;;;;;;;12.02;10.00;;;26.90;27.60;;;21.52;44.43;101745.59;4983287;28;99310;-61
2021/03/30 12:16:53;;;;;;;11.80;10.60;;;27.00;28.30;;;21.30;39.85;101743.91;4977516;28;99703;-61
2021/03/30 12:20:05;;;;;;;12.13;10.88;;;27.20;27.60;;;21.45;46.82;101741.97;4978454;28;99627;-61
2021/03/30 12:23:28;;;;;;;13.75;12.32;;;27.20;27.80;;;20.79;43.47;101741.19;4974216;28;99959;-60
2021/03/30 12:26:40;;;;;;;12.02;10.75;;;27.00;27.20;;;21.10;45.05;101740.94;4981557;28;100387;-61
2021/03/30 12:29:51;;;;;;;14.95;10.50;;;26.70;27.60;;;21.27;43.64;101736.13;4979497;28;99661;-60
2021/03/30 12:33:02;;;;;;;11.95;10.63;;;26.70;27.90;;;21.00;40.25;101736.84;4978770;28;99619;-61
2021/03/30 12:36:25;;;;;;;12.45;11.05;;;26.50;27.40;;;20.60;41.47;101738.22;4983119;28;99876;-61
2021/03/30 12:39:38;;;;;;;12.80;10.07;;;26.40;26.90;;;20.96;40.92;101725.50;4979123;28;99872;-62
2021/03/30 12:42:51;;;;;;;12.25;9.20;;;26.20;27.30;;;21.22;40.08;101729.59;4982089;28;100140;-63
2021/03/30 12:46:03;;;;;;;12.02;9.93;;;26.40;27.40;;;21.06;39.13;101717.03;4977719;28;99479;-63
2021/03/30 12:49:14;;;;;;;12.05;9.88;;;26.40;27.20;;;21.34;38.72;101709.00;4987870;28;99284;-61
2021/03/30 12:52:52;;;;;;;11.10;10.00;;;26.40;27.40;;;21.22;39.89;101699.66;4987645;28;99210;-61
2021/03/30 12:56:04;;;;;;;12.50;10.43;;;26.50;27.20;;;21.20;41.00;101699.84;4921842;28;100248;-63
2021/03/30 13:02:49;;;;;;;10.63;9.52;;;26.80;27.70;;;21.74;39.85;101704.75;4964547;28;99123;-62
2021/03/30 13:06:00;;;;;;;10.50;9.02;;;27.20;28.10;;;21.73;39.53;101693.00;4979825;28;99583;-62
2021/03/30 13:13:01;;;;;;;10.52;8.30;;;27.60;27.30;;;21.54;40.01;101690.94;4897820;28;98959;-62
2021/03/30 13:16:12;;;;;;;10.68;8.23;;;27.60;26.40;;;22.13;39.36;101693.34;4901192;28;99151;-62
2021/03/30 13:19:23;;;;;;;11.05;9.95;;;27.40;27.50;;;21.97;37.77;101682.69;4985476;28;96969;-61
2021/03/30 13:22:34;;;;;;;11.30;9.25;;;27.60;27.40;;;22.02;39.04;101686.53;4988489;27;97797;-61
2021/03/30 13:25:45;;;;;;;11.13;9.68;;;27.80;27.10;;;22.01;39.93;101687.56;4991397;28;98526;-60
2021/03/30 13:32:33;;;;;;;10.13;7.90;;;28.10;27.20;;;21.98;39.39;101671.59;4978345;28;98753;-61
2021/03/30 13:35:44;;;;;;;10.15;9.15;;;28.10;27.10;;;21.69;40.88;101680.81;4962443;28;99588;-62
2021/03/30 13:38:56;;;;;;;11.68;9.50;;;28.10;27.00;;;21.73;42.70;101675.81;4981732;28;97717;-61
2021/03/30 13:42:07;;;;;;;10.93;9.75;;;28.00;27.10;;;22.41;41.89;101674.19;4984572;28;95800;-61
2021/03/30 13:45:19;;;;;;;12.10;10.57;;;28.00;27.40;;;22.07;42.11;101670.44;4989408;28;98640;-62
2021/03/30 13:48:31;;;;;;;12.77;10.43;;;28.10;27.50;;;21.85;41.02;101666.91;4972421;28;92368;-61
2021/03/30 13:51:43;;;;;;;11.75;10.15;;;28.20;26.90;;;21.43;43.58;101666.97;4975121;28;99348;-62
2021/03/30 13:54:55;;;;;;;11.07;9.98;;;28.10;27.00;;;21.77;43.22;101667.03;4978841;28;98991;-62
2021/03/30 13:58:06;;;;;;;10.77;9.65;;;27.90;27.50;;;22.09;42.85;101653.88;4983277;28;96845;-61
2021/03/30 14:01:18;;;;;;;12.52;10.98;;;27.90;27.80;;;21.64;40.06;101657.91;4985996;27;98078;-61
2021/03/30 14:04:41;;;;;;;11.98;10.38;;;28.00;27.00;;;21.75;46.26;101651.94;4985510;28;100103;-62
2021/03/30 14:08:01;;;;;;;13.00;10.18;;;27.70;27.30;;;21.88;45.23;101656.66;4982276;28;99272;-61
2021/03/30 14:11:13;;;;;;;12.70;10.02;;;27.50;28.00;;;21.88;42.33;101655.59;4977633;28;99262;-63
2021/03/30 14:14:26;;;;;;;11.35;9.77;;;27.50;28.00;;;22.21;41.51;101652.28;4979630;28;99632;-62
2021/03/30 14:21:34;;;;;;;12.35;10.23;;;27.50;28.00;;;21.98;42.51;101652.53;4974122;28;99794;-63
2021/03/30 14:25:24;;;;;;;13.00;10.82;;;27.40;27.90;;;21.91;45.99;101648.91;4977446;28;99647;-61
2021/03/30 14:28:35;;;;;;;10.57;9.57;;;27.30;28.20;;;22.36;44.76;101644.81;4974601;28;99662;-61
2021/03/30 14:31:47;;;;;;;11.90;10.70;;;27.30;28.60;;;21.61;43.92;101637.38;4985389;28;99249;-62
2021/03/30 14:35:01;;;;;;;11.85;10.65;;;27.30;28.40;;;21.55;42.94;101631.88;4985742;27;97817;-61